createdAt,value
2018-04-27T00:00:43.483Z,8.1
2018-04-27T00:01:42.822Z,8.1
2018-04-27T00:02:42.154Z,8.1
2018-04-27T00:03:40.861Z,8
2018-04-27T00:04:40.290Z,8
2018-04-27T00:05:10.532Z,8
2018-04-27T00:05:40.716Z,8
2018-04-27T00:06:11.359Z,8
2018-04-27T00:07:37.333Z,7.9
2018-04-27T00:08:36.448Z,7.9
2018-04-27T00:09:35.654Z,7.9
2018-04-27T00:10:35.078Z,7.9
2018-04-27T00:11:34.011Z,7.9
2018-04-27T00:12:33.334Z,7.9
2018-04-27T00:13:32.154Z,7.9
2018-04-27T00:14:31.595Z,7.8
2018-04-27T00:15:30.415Z,7.8
2018-04-27T00:16:29.529Z,7.8
2018-04-27T00:17:28.740Z,7.8
2018-04-27T00:18:27.965Z,7.7
2018-04-27T00:19:27.274Z,7.7
2018-04-27T00:20:26.107Z,7.7
2018-04-27T00:21:25.330Z,7.7
2018-04-27T00:22:24.553Z,7.7
2018-04-27T00:23:23.882Z,7.7
2018-04-27T00:24:22.881Z,7.6
2018-04-27T00:25:21.831Z,7.6
2018-04-27T00:26:21.148Z,7.6
2018-04-27T00:27:19.966Z,7.6
2018-04-27T00:28:19.181Z,7.6
2018-04-27T00:29:18.398Z,7.6
2018-04-27T00:30:17.332Z,7.5
2018-04-27T00:31:16.655Z,7.6
2018-04-27T00:32:15.760Z,7.6
2018-04-27T00:33:14.579Z,7.5
2018-04-27T00:34:13.895Z,7.5
2018-04-27T00:35:13.396Z,7.5
2018-04-27T00:36:12.108Z,7.5
2018-04-27T00:37:11.222Z,7.5
2018-04-27T00:39:09.324Z,7.5
2018-04-27T00:40:08.654Z,7.5
2018-04-27T00:41:07.870Z,7.5
2018-04-27T00:42:07.085Z,7.5
2018-04-27T00:43:06.194Z,7.5
2018-04-27T00:44:05.301Z,7.5
2018-04-27T00:45:04.512Z,7.5
2018-04-27T00:46:03.329Z,7.5
2018-04-27T00:46:33.926Z,7.5
2018-04-27T00:47:04.663Z,7.5
2018-04-27T00:47:35.084Z,7.5
2018-04-27T00:49:00.976Z,7.4
2018-04-27T00:49:59.701Z,7.5
2018-04-27T00:50:59.023Z,7.4
2018-04-27T00:51:58.134Z,7.4
2018-04-27T00:52:57.353Z,7.4
2018-04-27T00:53:56.286Z,7.4
2018-04-27T00:54:55.499Z,7.3
2018-04-27T00:55:54.828Z,7.3
2018-04-27T00:56:53.553Z,7.3
2018-04-27T00:57:52.880Z,7.3
2018-04-27T00:58:52.209Z,7.3
2018-04-27T00:59:51.136Z,7.3
2018-04-27T01:00:50.459Z,7.3
2018-04-27T01:01:49.393Z,7.2
2018-04-27T01:02:48.717Z,7.2
2018-04-27T01:03:47.646Z,7.2
2018-04-27T01:04:46.964Z,7.2
2018-04-27T01:05:46.186Z,7.2
2018-04-27T01:06:45.003Z,7.2
2018-04-27T01:07:44.217Z,7.2
2018-04-27T01:08:43.214Z,7.2
2018-04-27T01:09:42.540Z,7.2
2018-04-27T01:10:41.646Z,7.2
2018-04-27T01:11:40.594Z,7.2
2018-04-27T01:12:39.700Z,7.2
2018-04-27T01:13:39.026Z,7.1
2018-04-27T01:14:37.861Z,7.1
2018-04-27T01:15:37.290Z,7.1
2018-04-27T01:16:36.103Z,7.1
2018-04-27T01:17:35.427Z,7.1
2018-04-27T01:18:34.238Z,7.1
2018-04-27T01:19:33.563Z,7.1
2018-04-27T01:20:32.894Z,7.1
2018-04-27T01:21:31.717Z,7.1
2018-04-27T01:22:31.048Z,7.1
2018-04-27T01:23:29.867Z,7.1
2018-04-27T01:24:29.197Z,7
2018-04-27T01:25:28.413Z,7
2018-04-27T01:26:27.343Z,7.1
2018-04-27T01:27:26.424Z,7
2018-04-27T01:28:25.427Z,7
2018-04-27T01:29:24.533Z,7
2018-04-27T01:30:23.760Z,7
2018-04-27T01:31:23.191Z,7
2018-04-27T01:32:22.299Z,7
2018-04-27T01:33:20.902Z,7
2018-04-27T01:34:20.319Z,7
2018-04-27T01:35:19.643Z,7.1
2018-04-27T01:36:18.359Z,7.1
2018-04-27T01:37:17.582Z,7.1
2018-04-27T01:38:16.807Z,7.1
2018-04-27T01:39:16.015Z,7.1
2018-04-27T01:40:14.839Z,7.1
2018-04-27T01:43:12.328Z,7.1
2018-04-27T01:45:10.317Z,7.1
2018-04-27T01:46:09.638Z,7.1
2018-04-27T01:47:08.750Z,7.1
2018-04-27T01:48:08.086Z,7.1
2018-04-27T01:49:06.802Z,7.2
2018-04-27T01:50:06.241Z,7.2
2018-04-27T01:51:05.366Z,7.2
2018-04-27T01:52:04.099Z,7.2
2018-04-27T01:53:03.416Z,7.2
2018-04-27T01:54:02.336Z,7.2
2018-04-27T01:55:01.455Z,7.2
2018-04-27T01:56:00.895Z,7.2
2018-04-27T01:56:59.604Z,7.2
2018-04-27T01:57:58.927Z,7.2
2018-04-27T01:58:58.141Z,7.2
2018-04-27T01:59:56.953Z,7.3
2018-04-27T02:00:56.372Z,7.3
2018-04-27T02:01:55.360Z,7.3
2018-04-27T02:02:54.678Z,7.3
2018-04-27T02:03:53.802Z,7.3
2018-04-27T02:04:52.619Z,7.3
2018-04-27T02:06:50.743Z,7.3
2018-04-27T02:07:50.058Z,7.3
2018-04-27T02:08:49.174Z,7.3
2018-04-27T02:09:48.110Z,7.3
2018-04-27T02:10:47.441Z,7.3
2018-04-27T02:11:46.657Z,7.3
2018-04-27T02:12:45.366Z,7.3
2018-04-27T02:13:44.686Z,7.3
2018-04-27T02:14:43.900Z,7.3
2018-04-27T02:15:43.120Z,7.3
2018-04-27T02:16:42.050Z,7.3
2018-04-27T02:17:41.382Z,7.3
2018-04-27T02:18:40.201Z,7.3
2018-04-27T02:19:39.521Z,7.4
2018-04-27T02:20:38.338Z,7.4
2018-04-27T02:21:08.768Z,7.4
2018-04-27T02:21:39.517Z,7.4
2018-04-27T02:22:09.633Z,7.4
2018-04-27T02:23:35.622Z,7.4
2018-04-27T02:24:34.718Z,7.4
2018-04-27T02:25:33.818Z,7.4
2018-04-27T02:26:33.022Z,7.4
2018-04-27T02:27:32.333Z,7.4
2018-04-27T02:28:31.562Z,7.4
2018-04-27T02:29:30.383Z,7.4
2018-04-27T02:30:29.808Z,7.4
2018-04-27T02:31:28.512Z,7.4
2018-04-27T02:32:27.733Z,7.4
2018-04-27T02:33:27.048Z,7.4
2018-04-27T02:34:26.255Z,7.4
2018-04-27T02:35:24.961Z,7.4
2018-04-27T02:36:24.180Z,7.4
2018-04-27T02:37:23.497Z,7.4
2018-04-27T02:38:22.806Z,7.4
2018-04-27T02:39:21.514Z,7.4
2018-04-27T02:40:20.846Z,7.4
2018-04-27T02:41:19.782Z,7.4
2018-04-27T02:42:19.215Z,7.4
2018-04-27T02:43:17.820Z,7.4
2018-04-27T02:45:16.419Z,7.3
2018-04-27T02:46:15.266Z,7.3
2018-04-27T02:47:14.694Z,7.4
2018-04-27T02:48:13.626Z,7.3
2018-04-27T02:50:11.834Z,7.3
2018-04-27T02:51:11.262Z,7.3
2018-04-27T02:53:09.362Z,7.3
2018-04-27T02:54:08.298Z,7.2
2018-04-27T02:55:07.740Z,7.2
2018-04-27T02:56:06.558Z,7.2
2018-04-27T02:57:05.877Z,7.2
2018-04-27T02:58:04.717Z,7.2
2018-04-27T02:59:04.042Z,7.1
2018-04-27T03:00:03.143Z,7.1
2018-04-27T03:01:02.148Z,7.1
2018-04-27T03:02:01.255Z,7.1
2018-04-27T03:02:31.886Z,7.1
2018-04-27T03:03:59.511Z,7
2018-04-27T03:04:58.836Z,7
2018-04-27T03:05:57.555Z,7
2018-04-27T03:06:56.772Z,7
2018-04-27T03:07:56.212Z,7
2018-04-27T03:08:55.158Z,7
2018-04-27T03:09:53.988Z,6.9
2018-04-27T03:10:53.309Z,6.9
2018-04-27T03:11:52.230Z,6.9
2018-04-27T03:12:51.633Z,6.9
2018-04-27T03:13:22.268Z,6.9
2018-04-27T03:13:52.781Z,6.9
2018-04-27T03:14:22.908Z,6.9
2018-04-27T03:15:48.788Z,6.9
2018-04-27T03:16:47.895Z,6.9
2018-04-27T03:18:45.981Z,6.8
2018-04-27T03:19:45.409Z,6.8
2018-04-27T03:20:44.623Z,6.8
2018-04-27T03:21:43.546Z,6.8
2018-04-27T03:22:42.360Z,6.8
2018-04-27T03:24:40.446Z,6.7
2018-04-27T03:25:39.557Z,6.7
2018-04-27T03:26:38.991Z,6.7
2018-04-27T03:27:38.204Z,6.7
2018-04-27T03:28:37.024Z,6.7
2018-04-27T03:29:36.226Z,6.7
2018-04-27T03:30:35.550Z,6.7
2018-04-27T03:31:34.652Z,6.6
2018-04-27T03:32:33.581Z,6.6
2018-04-27T03:33:32.509Z,6.6
2018-04-27T03:34:31.822Z,6.6
2018-04-27T03:35:30.739Z,6.6
2018-04-27T03:36:30.160Z,6.6
2018-04-27T03:37:29.259Z,6.6
2018-04-27T03:38:28.463Z,6.6
2018-04-27T03:39:27.061Z,6.6
2018-04-27T03:40:26.373Z,6.5
2018-04-27T03:41:25.590Z,6.5
2018-04-27T03:42:24.794Z,6.5
2018-04-27T03:43:23.713Z,6.5
2018-04-27T03:44:23.130Z,6.5
2018-04-27T03:45:22.033Z,6.5
2018-04-27T03:46:21.340Z,6.5
2018-04-27T03:47:20.052Z,6.5
2018-04-27T03:48:19.165Z,6.5
2018-04-27T03:49:18.588Z,6.5
2018-04-27T03:50:17.608Z,6.5
2018-04-27T03:51:16.708Z,6.4
2018-04-27T03:52:15.919Z,6.4
2018-04-27T03:53:14.735Z,6.4
2018-04-27T03:54:14.048Z,6.4
2018-04-27T03:55:12.959Z,6.4
2018-04-27T03:56:12.164Z,6.4
2018-04-27T03:57:10.975Z,6.4
2018-04-27T03:58:10.296Z,6.4
2018-04-27T03:59:09.216Z,6.4
2018-04-27T04:00:08.645Z,6.4
2018-04-27T04:02:06.741Z,6.4
2018-04-27T04:03:05.952Z,6.3
2018-04-27T04:04:05.165Z,6.4
2018-04-27T04:05:03.870Z,6.3
2018-04-27T04:06:03.085Z,6.3
2018-04-27T04:07:02.294Z,6.3
2018-04-27T04:08:01.297Z,6.3
2018-04-27T04:09:00.406Z,6.3
2018-04-27T04:09:59.335Z,6.3
2018-04-27T04:10:58.651Z,6.3
2018-04-27T04:11:57.863Z,6.3
2018-04-27T04:12:57.072Z,6.3
2018-04-27T04:13:55.887Z,6.3
2018-04-27T04:14:55.250Z,6.3
2018-04-27T04:15:54.068Z,6.3
2018-04-27T04:16:52.988Z,6.3
2018-04-27T04:17:52.308Z,6.3
2018-04-27T04:18:51.514Z,6.3
2018-04-27T04:19:50.612Z,6.3
2018-04-27T04:20:49.430Z,6.3
2018-04-27T04:21:48.846Z,6.3
2018-04-27T04:22:47.772Z,6.3
2018-04-27T04:23:46.767Z,6.3
2018-04-27T04:24:45.979Z,6.4
2018-04-27T04:25:45.186Z,6.4
2018-04-27T04:26:44.296Z,6.4
2018-04-27T04:27:43.103Z,6.4
2018-04-27T04:28:42.315Z,6.4
2018-04-27T04:29:41.647Z,6.4
2018-04-27T04:30:40.468Z,6.4
2018-04-27T04:31:39.891Z,6.4
2018-04-27T04:32:38.593Z,6.4
2018-04-27T04:33:38.027Z,6.4
2018-04-27T04:34:36.728Z,6.4
2018-04-27T04:35:35.721Z,6.4
2018-04-27T04:36:34.929Z,6.4
2018-04-27T04:37:34.356Z,6.4
2018-04-27T04:38:33.063Z,6.4
2018-04-27T04:39:32.404Z,6.4
2018-04-27T04:40:31.779Z,6.4
2018-04-27T04:41:30.701Z,6.4
2018-04-27T04:42:29.699Z,6.4
2018-04-27T04:44:27.896Z,6.5
2018-04-27T04:45:27.208Z,6.4
2018-04-27T04:46:26.134Z,6.5
2018-04-27T04:47:25.446Z,6.5
2018-04-27T04:48:24.154Z,6.4
2018-04-27T04:49:23.581Z,6.5
2018-04-27T04:50:22.506Z,6.5
2018-04-27T04:51:21.719Z,6.5
2018-04-27T04:52:20.597Z,6.5
2018-04-27T04:53:19.607Z,6.5
2018-04-27T04:54:18.813Z,6.5
2018-04-27T04:55:18.146Z,6.5
2018-04-27T04:56:16.967Z,6.5
2018-04-27T04:57:16.077Z,6.5
2018-04-27T04:59:14.276Z,6.5
2018-04-27T05:00:13.715Z,6.5
2018-04-27T05:01:12.417Z,6.5
2018-04-27T05:02:11.735Z,6.6
2018-04-27T05:03:10.651Z,6.5
2018-04-27T05:04:09.968Z,6.5
2018-04-27T05:05:08.888Z,6.6
2018-04-27T05:06:08.310Z,6.6
2018-04-27T05:07:07.022Z,6.6
2018-04-27T05:08:06.339Z,6.6
2018-04-27T05:09:05.148Z,6.6
2018-04-27T05:10:04.357Z,6.6
2018-04-27T05:11:03.670Z,6.6
2018-04-27T05:12:02.482Z,6.6
2018-04-27T05:13:01.575Z,6.6
2018-04-27T05:14:00.794Z,6.6
2018-04-27T05:15:00.008Z,6.6
2018-04-27T05:15:59.107Z,6.6
2018-04-27T05:16:58.027Z,6.7
2018-04-27T05:17:57.345Z,6.7
2018-04-27T05:18:56.050Z,6.7
2018-04-27T05:19:55.381Z,6.7
2018-04-27T05:20:54.592Z,6.7
2018-04-27T05:21:53.903Z,6.7
2018-04-27T05:22:52.609Z,6.7
2018-04-27T05:23:51.811Z,6.7
2018-04-27T05:24:50.764Z,6.7
2018-04-27T05:25:20.996Z,6.7
2018-04-27T05:25:51.629Z,6.8
2018-04-27T05:26:48.940Z,6.8
2018-04-27T05:27:47.937Z,6.8
2018-04-27T05:28:47.034Z,6.8
2018-04-27T05:29:46.533Z,6.8
2018-04-27T05:30:45.695Z,6.8
2018-04-27T05:31:44.615Z,6.8
2018-04-27T05:32:43.821Z,6.8
2018-04-27T05:33:42.526Z,6.8
2018-04-27T05:34:41.844Z,6.8
2018-04-27T05:36:40.067Z,6.9
2018-04-27T05:37:39.488Z,6.9
2018-04-27T05:38:38.086Z,6.9
2018-04-27T05:39:37.509Z,6.9
2018-04-27T05:40:36.240Z,6.9
2018-04-27T05:41:35.541Z,7
2018-04-27T05:42:34.861Z,7
2018-04-27T05:43:33.562Z,7
2018-04-27T05:44:32.864Z,7
2018-04-27T05:45:32.180Z,7
2018-04-27T05:46:30.988Z,7
2018-04-27T05:47:30.204Z,7.1
2018-04-27T05:48:29.417Z,7.1
2018-04-27T05:50:27.401Z,7.1
2018-04-27T05:51:26.719Z,7.1
2018-04-27T05:52:25.429Z,7.2
2018-04-27T05:53:24.753Z,7.2
2018-04-27T05:54:24.193Z,7.2
2018-04-27T05:55:23.079Z,7.2
2018-04-27T05:56:22.393Z,7.2
2018-04-27T05:57:21.218Z,7.3
2018-04-27T05:58:20.215Z,7.3
2018-04-27T05:59:19.636Z,7.3
2018-04-27T06:00:18.338Z,7.3
2018-04-27T06:01:17.656Z,7.4
2018-04-27T06:02:16.587Z,7.4
2018-04-27T06:03:15.904Z,7.4
2018-04-27T06:04:15.122Z,7.4
2018-04-27T06:05:13.932Z,7.5
2018-04-27T06:05:44.345Z,7.5
2018-04-27T06:06:15.000Z,7.5
2018-04-27T06:06:45.419Z,7.5
2018-04-27T06:07:15.944Z,7.5
2018-04-27T06:07:46.464Z,7.5
2018-04-27T06:09:10.335Z,7.6
2018-04-27T06:10:09.820Z,7.6
2018-04-27T06:12:07.784Z,7.6
2018-04-27T06:13:07.120Z,7.7
2018-04-27T06:14:06.224Z,7.7
2018-04-27T06:15:04.821Z,7.7
2018-04-27T06:16:04.324Z,7.7
2018-04-27T06:17:03.440Z,7.8
2018-04-27T06:18:02.141Z,7.8
2018-04-27T06:18:32.554Z,7.8
2018-04-27T06:19:03.192Z,7.8
2018-04-27T06:20:00.518Z,7.8
2018-04-27T06:20:59.755Z,7.8
2018-04-27T06:21:58.566Z,7.9
2018-04-27T06:22:58.000Z,7.9
2018-04-27T06:23:56.991Z,7.9
2018-04-27T06:24:56.205Z,8
2018-04-27T06:25:55.122Z,8
2018-04-27T06:26:54.340Z,8
2018-04-27T06:27:53.547Z,8.1
2018-04-27T06:28:52.864Z,8.1
2018-04-27T06:29:51.787Z,8.1
2018-04-27T06:30:51.000Z,8.2
2018-04-27T06:31:50.218Z,8.2
2018-04-27T06:32:49.028Z,8.2
2018-04-27T06:33:48.242Z,8.3
2018-04-27T06:34:47.067Z,8.3
2018-04-27T06:35:46.497Z,8.3
2018-04-27T06:36:45.434Z,8.3
2018-04-27T06:37:44.767Z,8.4
2018-04-27T06:38:43.976Z,8.4
2018-04-27T06:39:43.083Z,8.4
2018-04-27T06:40:41.891Z,8.4
2018-04-27T06:41:40.893Z,8.5
2018-04-27T06:42:39.996Z,8.5
2018-04-27T06:43:39.425Z,8.5
2018-04-27T06:44:38.230Z,8.6
2018-04-27T06:45:37.435Z,8.6
2018-04-27T06:46:36.753Z,8.7
2018-04-27T06:47:07.000Z,8.7
2018-04-27T06:47:37.018Z,8.7
2018-04-27T06:48:07.541Z,8.7
2018-04-27T06:48:37.558Z,8.8
2018-04-27T06:49:33.643Z,8.8
2018-04-27T06:50:33.351Z,8.9
2018-04-27T06:51:32.376Z,8.9
2018-04-27T06:52:31.047Z,9
2018-04-27T06:53:30.356Z,9.1
2018-04-27T06:54:29.675Z,9.1
2018-04-27T06:55:28.676Z,9.2
2018-04-27T06:56:28.100Z,9.2
2018-04-27T06:57:26.919Z,9.2
2018-04-27T06:58:26.237Z,9.3
2018-04-27T06:59:25.346Z,9.4
2018-04-27T07:00:24.101Z,9.4
2018-04-27T07:01:23.222Z,9.5
2018-04-27T07:02:22.437Z,9.5
2018-04-27T07:03:21.419Z,9.6
2018-04-27T07:04:20.740Z,9.6
2018-04-27T07:05:20.323Z,9.7
2018-04-27T07:07:18.412Z,9.8
2018-04-27T07:08:17.342Z,9.8
2018-04-27T07:09:16.762Z,9.8
2018-04-27T07:10:15.472Z,9.9
2018-04-27T07:11:14.685Z,9.9
2018-04-27T07:12:14.020Z,10
2018-04-27T07:13:12.940Z,10
2018-04-27T07:14:12.367Z,10
2018-04-27T07:15:11.183Z,10.1
2018-04-27T07:16:10.397Z,10.2
2018-04-27T07:18:08.713Z,10.3
2018-04-27T07:19:07.637Z,10.3
2018-04-27T07:20:06.844Z,10.3
2018-04-27T07:21:05.850Z,10.4
2018-04-27T07:22:05.059Z,10.4
2018-04-27T07:23:04.280Z,10.4
2018-04-27T07:24:03.490Z,10.4
2018-04-27T07:25:02.600Z,10.5
2018-04-27T07:26:01.808Z,10.5
2018-04-27T07:27:01.141Z,10.5
2018-04-27T07:27:59.850Z,10.6
2018-04-27T07:28:58.956Z,10.6
2018-04-27T07:29:58.278Z,10.6
2018-04-27T07:30:57.487Z,10.6
2018-04-27T07:31:56.800Z,10.7
2018-04-27T07:32:27.326Z,10.7
2018-04-27T07:32:57.951Z,10.7
2018-04-27T07:33:55.147Z,10.7
2018-04-27T07:34:53.872Z,10.7
2018-04-27T07:35:53.314Z,10.7
2018-04-27T07:36:52.630Z,10.7
2018-04-27T07:37:51.841Z,10.8
2018-04-27T07:38:50.769Z,10.8
2018-04-27T07:39:49.971Z,10.8
2018-04-27T07:40:49.179Z,10.8
2018-04-27T07:41:47.991Z,10.9
2018-04-27T07:42:18.510Z,10.9
2018-04-27T07:42:49.251Z,10.9
2018-04-27T07:43:19.888Z,10.9
2018-04-27T07:44:45.767Z,10.9
2018-04-27T07:46:43.857Z,11
2018-04-27T07:47:43.068Z,11
2018-04-27T07:48:42.267Z,11
2018-04-27T07:49:41.484Z,11
2018-04-27T07:50:40.703Z,11
2018-04-27T07:51:39.408Z,11
2018-04-27T07:52:38.616Z,11.1
2018-04-27T07:53:09.237Z,11.1
2018-04-27T07:54:37.136Z,11.1
2018-04-27T07:55:36.452Z,11.1
2018-04-27T07:56:35.667Z,11.1
2018-04-27T07:57:34.371Z,11.2
2018-04-27T07:58:33.791Z,11.2
2018-04-27T07:59:32.904Z,11.2
2018-04-27T08:00:32.115Z,11.2
2018-04-27T08:01:31.325Z,11.2
2018-04-27T08:02:30.920Z,11.2
2018-04-27T08:03:29.703Z,11.3
2018-04-27T08:04:29.023Z,11.3
2018-04-27T08:05:27.831Z,11.3
2018-04-27T08:06:27.037Z,11.3
2018-04-27T08:07:26.460Z,11.3
2018-04-27T08:08:25.274Z,11.4
2018-04-27T08:09:24.474Z,11.4
2018-04-27T08:10:23.903Z,11.4
2018-04-27T08:11:23.040Z,11.4
2018-04-27T08:12:22.090Z,11.4
2018-04-27T08:13:21.304Z,11.4
2018-04-27T08:14:20.755Z,11.4
2018-04-27T08:15:19.453Z,11.4
2018-04-27T08:16:18.661Z,11.4
2018-04-27T08:17:18.039Z,11.4
2018-04-27T08:18:17.248Z,11.4
2018-04-27T08:19:16.457Z,11.4
2018-04-27T08:20:15.283Z,11.4
2018-04-27T08:21:14.891Z,11.4
2018-04-27T08:21:45.407Z,11.4
2018-04-27T08:22:16.035Z,11.4
2018-04-27T08:22:46.552Z,11.4
2018-04-27T08:23:17.189Z,11.4
2018-04-27T08:23:47.810Z,11.4
2018-04-27T08:24:18.449Z,11.4
2018-04-27T08:24:48.971Z,11.4
2018-04-27T08:26:10.330Z,11.4
2018-04-27T08:27:09.676Z,11.5
2018-04-27T08:28:09.166Z,11.5
2018-04-27T08:29:07.974Z,11.6
2018-04-27T08:30:07.212Z,11.6
2018-04-27T08:31:06.431Z,11.6
2018-04-27T08:32:05.347Z,11.6
2018-04-27T08:33:04.663Z,11.7
2018-04-27T08:34:03.869Z,11.7
2018-04-27T08:34:34.098Z,11.7
2018-04-27T08:35:04.328Z,11.7
2018-04-27T08:35:34.858Z,11.7
2018-04-27T08:37:01.343Z,11.8
2018-04-27T08:38:00.338Z,11.9
2018-04-27T08:38:59.660Z,11.9
2018-04-27T08:39:58.975Z,11.9
2018-04-27T08:41:57.472Z,12
2018-04-27T08:42:56.181Z,12
2018-04-27T08:43:55.741Z,12
2018-04-27T08:44:54.661Z,12
2018-04-27T08:46:53.376Z,12.1
2018-04-27T08:47:52.207Z,12.2
2018-04-27T08:48:51.413Z,12.2
2018-04-27T08:49:50.841Z,12.2
2018-04-27T08:50:50.162Z,12.3
2018-04-27T08:51:48.756Z,12.4
2018-04-27T08:52:48.468Z,12.4
2018-04-27T08:53:47.600Z,12.4
2018-04-27T08:54:46.812Z,12.5
2018-04-27T08:55:45.918Z,12.5
2018-04-27T08:56:44.740Z,12.5
2018-04-27T08:57:43.947Z,12.5
2018-04-27T08:58:43.271Z,12.6
2018-04-27T08:59:42.693Z,12.6
2018-04-27T09:00:42.008Z,12.6
2018-04-27T09:01:41.003Z,12.6
2018-04-27T09:02:40.160Z,12.7
2018-04-27T09:03:39.278Z,12.7
2018-04-27T09:04:38.388Z,12.7
2018-04-27T09:05:37.710Z,12.7
2018-04-27T09:06:37.136Z,12.8
2018-04-27T09:07:35.870Z,12.8
2018-04-27T09:08:35.083Z,12.8
2018-04-27T09:09:34.579Z,12.8
2018-04-27T09:10:33.572Z,12.8
2018-04-27T09:11:32.778Z,12.8
2018-04-27T09:12:32.201Z,12.8
2018-04-27T09:13:30.906Z,12.8
2018-04-27T09:14:30.219Z,12.9
2018-04-27T09:15:00.464Z,12.9
2018-04-27T09:15:31.096Z,13
2018-04-27T09:16:28.694Z,13
2018-04-27T09:17:28.014Z,13
2018-04-27T09:18:27.339Z,13
2018-04-27T09:19:26.313Z,13
2018-04-27T09:20:25.413Z,13.1
2018-04-27T09:21:24.730Z,13.1
2018-04-27T09:22:23.723Z,13.1
2018-04-27T09:23:23.144Z,13.2
2018-04-27T09:24:22.451Z,13.2
2018-04-27T09:25:21.370Z,13.3
2018-04-27T09:26:20.576Z,13.4
2018-04-27T09:27:19.890Z,13.4
2018-04-27T09:28:18.988Z,13.5
2018-04-27T09:29:18.217Z,13.5
2018-04-27T09:30:17.535Z,13.6
2018-04-27T09:31:16.965Z,13.6
2018-04-27T09:32:15.640Z,13.6
2018-04-27T09:33:14.906Z,13.7
2018-04-27T09:34:14.011Z,13.7
2018-04-27T09:35:13.614Z,13.7
2018-04-27T09:36:12.820Z,13.7
2018-04-27T09:37:12.031Z,13.8
2018-04-27T09:39:10.238Z,13.8
2018-04-27T09:40:09.339Z,13.8
2018-04-27T09:41:08.792Z,13.9
2018-04-27T09:42:07.959Z,14
2018-04-27T09:43:07.274Z,14.1
2018-04-27T09:44:06.490Z,14.2
2018-04-27T09:45:05.190Z,14.2
2018-04-27T09:46:05.012Z,14.2
2018-04-27T09:47:03.722Z,14.3
2018-04-27T09:48:03.444Z,14.4
2018-04-27T09:49:02.343Z,14.4
2018-04-27T09:50:01.619Z,14.4
2018-04-27T09:51:00.727Z,14.4
2018-04-27T09:52:00.160Z,14.4
2018-04-27T09:52:59.259Z,14.4
2018-04-27T09:53:58.467Z,14.4
2018-04-27T09:54:57.794Z,14.4
2018-04-27T09:55:56.610Z,14.4
2018-04-27T09:56:55.920Z,14.5
2018-04-27T09:57:55.237Z,14.5
2018-04-27T09:58:54.547Z,14.5
2018-04-27T09:59:53.862Z,14.4
2018-04-27T10:00:53.066Z,14.4
2018-04-27T10:01:52.283Z,14.4
2018-04-27T10:03:50.485Z,14.4
2018-04-27T10:04:49.685Z,14.4
2018-04-27T10:05:49.286Z,14.4
2018-04-27T10:06:48.353Z,14.4
2018-04-27T10:07:47.665Z,14.4
2018-04-27T10:08:46.594Z,14.4
2018-04-27T10:10:45.300Z,14.4
2018-04-27T10:11:44.216Z,14.4
2018-04-27T10:12:43.316Z,14.4
2018-04-27T10:13:42.646Z,14.4
2018-04-27T10:14:42.051Z,14.5
2018-04-27T10:15:41.473Z,14.5
2018-04-27T10:16:40.295Z,14.5
2018-04-27T10:17:39.723Z,14.5
2018-04-27T10:18:39.145Z,14.6
2018-04-27T10:19:38.253Z,14.7
2018-04-27T10:20:37.463Z,14.8
2018-04-27T10:21:36.679Z,14.8
2018-04-27T10:22:36.017Z,14.8
2018-04-27T10:23:34.939Z,14.8
2018-04-27T10:24:34.142Z,14.9
2018-04-27T10:25:33.534Z,14.8
2018-04-27T10:26:32.919Z,14.8
2018-04-27T10:27:32.123Z,14.8
2018-04-27T10:28:31.044Z,14.8
2018-04-27T10:29:30.458Z,14.8
2018-04-27T10:30:29.889Z,14.9
2018-04-27T10:31:28.698Z,15
2018-04-27T10:32:28.207Z,15.1
2018-04-27T10:33:27.521Z,15.1
2018-04-27T10:34:26.727Z,15.2
2018-04-27T10:35:26.044Z,15.2
2018-04-27T10:36:24.864Z,15.3
2018-04-27T10:37:24.358Z,15.3
2018-04-27T10:38:23.786Z,15.4
2018-04-27T10:39:22.991Z,15.4
2018-04-27T10:40:21.699Z,15.5
2018-04-27T10:41:20.926Z,15.5
2018-04-27T10:42:20.739Z,15.5
2018-04-27T10:43:19.838Z,15.5
2018-04-27T10:44:18.947Z,15.6
2018-04-27T10:45:18.040Z,15.6
2018-04-27T10:46:17.752Z,15.5
2018-04-27T10:47:16.966Z,15.5
2018-04-27T10:48:16.065Z,15.5
2018-04-27T10:49:14.991Z,15.5
2018-04-27T10:50:14.217Z,15.5
2018-04-27T10:51:13.693Z,15.5
2018-04-27T10:52:13.003Z,15.6
2018-04-27T10:53:12.099Z,15.6
2018-04-27T10:54:11.323Z,15.6
2018-04-27T10:55:10.526Z,15.6
2018-04-27T10:56:09.840Z,15.6
2018-04-27T10:57:09.043Z,15.6
2018-04-27T10:58:08.363Z,15.6
2018-04-27T10:59:07.464Z,15.6
2018-04-27T11:00:06.668Z,15.7
2018-04-27T11:01:05.789Z,15.8
2018-04-27T11:02:05.501Z,15.9
2018-04-27T11:03:04.912Z,15.9
2018-04-27T11:05:03.237Z,16
2018-04-27T11:06:02.235Z,16
2018-04-27T11:07:01.445Z,16
2018-04-27T11:09:00.055Z,16.1
2018-04-27T11:09:59.497Z,16.1
2018-04-27T11:10:58.989Z,16.2
2018-04-27T11:11:57.957Z,16.2
2018-04-27T11:12:56.952Z,16.2
2018-04-27T11:13:56.774Z,16.2
2018-04-27T11:14:55.580Z,16.3
2018-04-27T11:15:54.794Z,16.3
2018-04-27T11:16:55.143Z,16.4
2018-04-27T11:17:53.738Z,16.4
2018-04-27T11:19:52.024Z,16.4
2018-04-27T11:20:51.451Z,16.4
2018-04-27T11:21:50.767Z,16.4
2018-04-27T11:22:49.872Z,16.4
2018-04-27T11:23:49.074Z,16.5
2018-04-27T11:24:48.180Z,16.5
2018-04-27T11:25:47.897Z,16.5
2018-04-27T11:26:47.110Z,16.6
2018-04-27T11:27:46.316Z,16.6
2018-04-27T11:28:45.562Z,16.7
2018-04-27T11:29:44.649Z,16.7
2018-04-27T11:30:44.151Z,16.7
2018-04-27T11:31:43.262Z,16.7
2018-04-27T11:32:42.773Z,16.7
2018-04-27T11:34:41.205Z,16.8
2018-04-27T11:35:40.627Z,16.7
2018-04-27T11:36:39.641Z,16.7
2018-04-27T11:37:38.748Z,16.8
2018-04-27T11:38:38.066Z,16.8
2018-04-27T11:39:37.885Z,16.9
2018-04-27T11:40:08.138Z,16.9
2018-04-27T11:41:36.322Z,16.9
2018-04-27T11:42:35.422Z,16.9
2018-04-27T11:43:34.729Z,17
2018-04-27T11:44:34.047Z,17.1
2018-04-27T11:45:33.478Z,17.1
2018-04-27T11:46:32.583Z,17.2
2018-04-27T11:47:31.792Z,17.2
2018-04-27T11:48:30.898Z,17.3
2018-04-27T11:49:30.610Z,17.3
2018-04-27T11:50:29.925Z,17.4
2018-04-27T11:51:00.446Z,17.4
2018-04-27T11:51:30.854Z,17.5
2018-04-27T11:52:01.589Z,17.5
2018-04-27T11:52:31.906Z,17.4
2018-04-27T11:53:02.427Z,17.4
2018-04-27T11:53:33.171Z,17.5
2018-04-27T11:54:26.842Z,17.7
2018-04-27T11:55:26.458Z,17.8
2018-04-27T11:56:25.572Z,17.7
2018-04-27T11:57:24.772Z,17.6
2018-04-27T11:58:24.077Z,17.6
2018-04-27T11:59:23.402Z,17.6
2018-04-27T12:00:22.790Z,17.6
2018-04-27T12:01:21.884Z,17.6
2018-04-27T12:02:21.353Z,17.7
2018-04-27T12:03:20.671Z,17.8
2018-04-27T12:04:19.994Z,17.8
2018-04-27T12:05:19.320Z,17.8
2018-04-27T12:07:17.914Z,17.9
2018-04-27T12:08:17.119Z,17.9
2018-04-27T12:09:16.727Z,17.9
2018-04-27T12:10:16.155Z,17.9
2018-04-27T12:11:15.576Z,18
2018-04-27T12:12:14.277Z,18.1
2018-04-27T12:13:14.099Z,18.2
2018-04-27T12:14:13.421Z,18.2
2018-04-27T12:15:12.415Z,18.1
2018-04-27T12:16:11.615Z,18.3
2018-04-27T12:17:11.437Z,18.5
2018-04-27T12:18:10.369Z,18.6
2018-04-27T12:19:09.686Z,18.7
2018-04-27T12:20:09.004Z,18.8
2018-04-27T12:21:08.321Z,18.9
2018-04-27T12:22:07.923Z,19
2018-04-27T12:23:07.138Z,19
2018-04-27T12:24:06.340Z,18.9
2018-04-27T12:25:05.782Z,19
2018-04-27T12:26:05.390Z,19.2
2018-04-27T12:28:04.099Z,19.1
2018-04-27T12:29:03.339Z,19.2
2018-04-27T12:30:02.778Z,19.4
2018-04-27T12:31:01.719Z,19.3
2018-04-27T12:32:00.908Z,19.4
2018-04-27T12:33:00.410Z,19.4
2018-04-27T12:33:31.056Z,19.4
2018-04-27T12:34:58.957Z,19.2
2018-04-27T12:35:58.564Z,19.2
2018-04-27T12:36:57.990Z,19.1
2018-04-27T12:37:57.410Z,19.1
2018-04-27T12:38:56.704Z,19.1
2018-04-27T12:39:55.997Z,19.2
2018-04-27T12:40:55.202Z,19.1
2018-04-27T12:41:55.050Z,19
2018-04-27T12:42:54.263Z,18.9
2018-04-27T12:43:53.691Z,19
2018-04-27T12:44:52.791Z,19.1
2018-04-27T12:45:52.213Z,19.3
2018-04-27T12:46:51.420Z,19.5
2018-04-27T12:47:50.634Z,19.7
2018-04-27T12:48:49.947Z,19.7
2018-04-27T12:49:49.874Z,19.6
2018-04-27T12:50:48.690Z,19.8
2018-04-27T12:51:48.406Z,19.8
2018-04-27T12:52:47.505Z,19.6
2018-04-27T12:53:46.843Z,19
2018-04-27T12:54:46.279Z,19
2018-04-27T12:55:45.597Z,19.2
2018-04-27T12:56:45.305Z,19.3
2018-04-27T12:57:44.621Z,19.5
2018-04-27T12:58:43.833Z,19.6
2018-04-27T12:59:43.040Z,19.5
2018-04-27T13:00:42.643Z,19.3
2018-04-27T13:01:41.936Z,19.5
2018-04-27T13:02:41.259Z,19.7
2018-04-27T13:03:40.656Z,19.7
2018-04-27T13:04:39.868Z,19.7
2018-04-27T13:05:39.687Z,19.8
2018-04-27T13:06:38.897Z,19.9
2018-04-27T13:07:38.316Z,19.9
2018-04-27T13:08:37.417Z,20.1
2018-04-27T13:09:37.237Z,20.1
2018-04-27T13:10:36.512Z,20
2018-04-27T13:11:35.832Z,20
2018-04-27T13:12:35.139Z,20.2
2018-04-27T13:13:34.847Z,20.4
2018-04-27T13:14:34.052Z,20.4
2018-04-27T13:15:33.258Z,20.4
2018-04-27T13:16:32.678Z,20.5
2018-04-27T13:17:32.391Z,20.5
2018-04-27T13:18:31.705Z,20.6
2018-04-27T13:19:30.809Z,20.6
2018-04-27T13:20:30.138Z,20.7
2018-04-27T13:21:29.863Z,20.9
2018-04-27T13:22:29.174Z,21
2018-04-27T13:23:28.388Z,21.2
2018-04-27T13:24:27.717Z,21.1
2018-04-27T13:25:27.542Z,21.2
2018-04-27T13:26:27.171Z,21.2
2018-04-27T13:27:26.073Z,21.1
2018-04-27T13:28:25.392Z,20.9
2018-04-27T13:29:24.996Z,21.1
2018-04-27T13:30:24.102Z,21.1
2018-04-27T13:30:54.618Z,21.1
2018-04-27T13:31:25.138Z,21.2
2018-04-27T13:31:55.660Z,21.2
2018-04-27T13:32:26.078Z,21.4
2018-04-27T13:33:22.378Z,21.4
2018-04-27T13:34:21.881Z,21.5